Time;durP1;ratioP1;P1;durP2;ratioP2;P2;SDS_P1;SDS_P2;PMS_P1;PMS_P2;Temp;Humidity;BMP_temperature;BMP_pressure;BME280_temperature;BME280_humidity;BME280_pressure;Samples;Min_cycle;Max_cycle;Signal;HPM_P1;HPM_P2
2022/08/28 04:01:00;;;;;;;21.83;10.20;;;15.30;96.30;;;;;;5677061;23;20492;-77
2022/08/28 04:03:25;;;;;;;29.97;11.70;;;15.30;96.30;;;;;;4975728;28;20779;-77
2022/08/28 04:05:51;;;;;;;22.60;10.50;;;15.30;96.30;;;;;;4993040;28;20236;-77
2022/08/28 04:08:18;;;;;;;14.13;9.33;;;15.30;96.30;;;;;;4992617;28;20524;-77
2022/08/28 04:10:45;;;;;;;21.83;9.27;;;15.20;96.30;;;;;;4993025;28;20608;-77
2022/08/28 04:13:15;;;;;;;15.03;8.23;;;15.20;96.30;;;;;;4996438;28;20503;-77
2022/08/28 04:15:41;;;;;;;11.17;7.30;;;15.10;96.30;;;;;;4999157;28;20462;-77
2022/08/28 04:18:07;;;;;;;12.40;6.90;;;15.10;96.30;;;;;;4997503;28;20848;-77
2022/08/28 04:20:33;;;;;;;14.50;7.23;;;15.10;96.30;;;;;;4975805;28;20193;-76
2022/08/28 04:22:58;;;;;;;20.07;6.60;;;15.20;96.30;;;;;;4993495;28;20423;-76
2022/08/28 04:25:24;;;;;;;19.00;7.43;;;15.10;96.30;;;;;;4992838;28;20583;-77
2022/08/28 04:27:50;;;;;;;25.57;7.03;;;15.10;96.30;;;;;;4993148;28;20185;-77
2022/08/28 04:30:16;;;;;;;12.57;7.03;;;15.10;96.30;;;;;;4992515;28;20174;-78
2022/08/28 04:32:42;;;;;;;13.23;6.50;;;15.00;96.30;;;;;;4992768;28;20962;-77
2022/08/28 04:35:09;;;;;;;18.40;7.00;;;15.00;96.30;;;;;;4992825;28;20735;-77
2022/08/28 04:37:35;;;;;;;20.07;6.70;;;15.00;96.30;;;;;;4992392;28;20181;-78
2022/08/28 04:40:03;;;;;;;17.93;7.03;;;15.00;96.30;;;;;;4992012;28;20478;-77
2022/08/28 04:42:28;;;;;;;19.37;7.70;;;15.00;96.30;;;;;;4975209;28;20205;-77
2022/08/28 04:44:58;;;;;;;16.67;7.07;;;15.00;96.30;;;;;;4992686;28;20463;-77
2022/08/28 04:47:24;;;;;;;17.43;7.83;;;14.90;96.30;;;;;;4992610;28;20260;-77
2022/08/28 04:49:50;;;;;;;10.50;6.10;;;14.90;96.30;;;;;;4974561;28;20563;-77
2022/08/28 04:52:15;;;;;;;14.70;6.00;;;14.90;96.30;;;;;;4992497;28;20432;-77
2022/08/28 04:54:41;;;;;;;16.77;6.17;;;14.90;96.30;;;;;;4992477;28;20181;-77
2022/08/28 04:57:07;;;;;;;23.33;5.87;;;14.80;96.30;;;;;;4975195;28;20305;-78
2022/08/28 04:59:33;;;;;;;22.27;6.37;;;14.90;96.30;;;;;;4991851;28;20181;-78
2022/08/28 05:01:58;;;;;;;13.77;6.17;;;14.80;96.30;;;;;;4992332;28;20300;-78
2022/08/28 05:04:25;;;;;;;24.03;7.43;;;14.80;96.30;;;;;;4975066;28;20638;-78
2022/08/28 05:06:51;;;;;;;17.40;6.47;;;14.80;96.30;;;;;;4992509;28;20173;-78
2022/08/28 05:09:18;;;;;;;13.93;5.50;;;14.80;96.30;;;;;;4991621;28;20436;-78
2022/08/28 05:11:45;;;;;;;11.83;4.67;;;14.80;96.30;;;;;;4992356;28;20205;-78
2022/08/28 05:14:11;;;;;;;16.50;6.33;;;14.70;96.30;;;;;;4992492;28;20496;-77
2022/08/28 05:16:45;;;;;;;10.10;4.70;;;14.70;96.30;;;;;;4991978;28;20543;-77
2022/08/28 05:19:10;;;;;;;17.20;4.73;;;14.80;96.30;;;;;;4966991;28;20186;-77
2022/08/28 05:21:36;;;;;;;16.43;4.93;;;14.80;96.30;;;;;;4965697;28;20903;-78
2022/08/28 05:24:02;;;;;;;12.33;4.30;;;14.80;96.30;;;;;;4972489;28;20174;-78
2022/08/28 05:26:28;;;;;;;19.03;4.97;;;14.80;96.30;;;;;;4972183;28;20174;-77
2022/08/28 05:28:55;;;;;;;15.53;4.57;;;14.80;96.30;;;;;;4974736;28;21086;-77
2022/08/28 05:31:22;;;;;;;10.03;4.40;;;14.80;96.30;;;;;;4975770;28;20206;-77
2022/08/28 05:33:49;;;;;;;15.00;4.17;;;14.90;96.30;;;;;;4976036;28;20445;-77
2022/08/28 05:36:16;;;;;;;9.53;4.70;;;14.90;96.30;;;;;;4975871;28;20496;-77
2022/08/28 05:38:41;;;;;;;11.80;4.30;;;15.00;96.30;;;;;;4957836;28;20422;-77
2022/08/28 05:41:07;;;;;;;14.70;4.50;;;15.00;96.30;;;;;;4967908;28;20440;-76
2022/08/28 05:43:33;;;;;;;14.70;4.50;;;15.00;96.30;;;;;;4977860;28;20626;-77
2022/08/28 05:46:01;;;;;;;17.20;4.20;;;15.10;96.30;;;;;;4994852;28;20181;-76
2022/08/28 05:48:28;;;;;;;8.50;3.57;;;15.10;96.30;;;;;;4994206;28;20563;-76
2022/08/28 05:50:54;;;;;;;11.10;3.53;;;15.20;96.30;;;;;;4994977;28;20432;-77
2022/08/28 05:53:20;;;;;;;8.00;3.47;;;15.20;96.30;;;;;;4994773;28;20499;-77
2022/08/28 05:55:45;;;;;;;11.80;3.97;;;15.30;96.30;;;;;;4977483;28;20525;-77
2022/08/28 05:58:33;;;;;;;13.10;3.70;;;15.30;96.30;;;;;;4976756;28;20174;-76
2022/08/28 06:01:19;;;;;;;12.70;4.03;;;15.30;96.30;;;;;;4994583;28;20368;-78
2022/08/28 06:03:54;;;;;;;14.00;3.40;;;15.30;96.30;;;;;;4994732;28;20416;-76
2022/08/28 06:06:23;;;;;;;15.33;4.37;;;15.20;96.30;;;;;;4977536;28;20424;-77
2022/08/28 06:08:50;;;;;;;19.30;4.10;;;15.20;96.30;;;;;;4994216;28;20900;-76
2022/08/28 06:11:19;;;;;;;8.07;3.73;;;15.30;96.30;;;;;;4994876;28;20436;-77
2022/08/28 06:13:44;;;;;;;4.60;2.80;;;15.20;96.30;;;;;;4994637;28;20420;-77
2022/08/28 06:16:11;;;;;;;12.33;3.27;;;15.30;96.30;;;;;;4994923;28;20614;-77
2022/08/28 06:18:37;;;;;;;13.67;3.63;;;15.30;96.30;;;;;;4994323;28;20617;-78
2022/08/28 06:21:02;;;;;;;12.67;3.60;;;15.40;96.30;;;;;;4994822;28;20439;-78
2022/08/28 06:23:28;;;;;;;14.50;4.23;;;15.40;96.30;;;;;;4969730;28;20580;-76
2022/08/28 06:25:54;;;;;;;11.93;3.27;;;15.40;96.30;;;;;;4981444;28;20178;-77
2022/08/28 06:28:24;;;;;;;12.63;3.33;;;15.50;96.30;;;;;;4976318;28;20486;-77
2022/08/28 06:30:53;;;;;;;21.37;4.03;;;15.60;96.30;;;;;;4992786;28;20626;-77
2022/08/28 06:33:20;;;;;;;19.17;3.70;;;15.60;96.30;;;;;;4994758;28;20483;-78
2022/08/28 06:35:48;;;;;;;10.43;3.47;;;15.70;96.30;;;;;;4994799;28;20468;-77
2022/08/28 06:38:16;;;;;;;10.67;4.77;;;15.70;96.30;;;;;;4994520;28;20431;-79
2022/08/28 06:40:45;;;;;;;11.70;3.03;;;15.80;96.30;;;;;;4994074;28;20421;-77
2022/08/28 06:43:12;;;;;;;9.00;2.80;;;15.80;96.30;;;;;;4994649;28;20417;-77
2022/08/28 06:45:42;;;;;;;14.70;3.50;;;15.80;96.30;;;;;;4977329;28;20761;-79
2022/08/28 06:48:09;;;;;;;13.17;3.20;;;15.80;96.30;;;;;;4979853;28;20525;-78
2022/08/28 06:50:39;;;;;;;14.70;3.53;;;15.90;96.30;;;;;;4974941;28;20491;-78
2022/08/28 06:53:07;;;;;;;24.23;3.70;;;16.00;96.30;;;;;;4974955;28;20425;-77
2022/08/28 06:55:33;;;;;;;17.30;4.10;;;16.00;96.30;;;;;;4957539;28;20472;-78
2022/08/28 06:57:59;;;;;;;9.20;2.83;;;16.00;96.30;;;;;;4974129;28;20418;-76
2022/08/28 07:00:24;;;;;;;11.37;3.70;;;16.10;96.30;;;;;;4957079;28;20193;-79
2022/08/28 07:02:49;;;;;;;4.67;2.23;;;16.10;96.30;;;;;;4974834;28;20562;-78
2022/08/28 07:05:15;;;;;;;19.10;3.20;;;15.90;96.30;;;;;;4957390;28;20182;-77
2022/08/28 07:07:41;;;;;;;13.37;2.70;;;15.90;96.30;;;;;;4974556;28;20200;-76
2022/08/28 07:10:07;;;;;;;7.50;2.23;;;15.80;96.30;;;;;;4986209;28;20513;-78
2022/08/28 07:12:32;;;;;;;8.60;2.73;;;15.80;96.30;;;;;;4993920;28;20193;-77
2022/08/28 07:14:58;;;;;;;11.13;2.80;;;15.70;96.30;;;;;;4994000;28;20255;-77
2022/08/28 07:17:23;;;;;;;12.50;2.53;;;15.60;96.30;;;;;;4969335;28;20186;-76
2022/08/28 07:19:49;;;;;;;14.43;3.30;;;15.60;96.30;;;;;;4973850;28;20237;-76
2022/08/28 07:22:15;;;;;;;11.30;3.43;;;15.60;96.30;;;;;;4974388;28;20194;-76
2022/08/28 07:24:40;;;;;;;8.53;2.87;;;15.60;96.30;;;;;;4974371;28;20182;-77
2022/08/28 07:27:07;;;;;;;11.83;3.60;;;15.60;96.30;;;;;;4956621;28;20265;-77
2022/08/28 07:29:33;;;;;;;8.83;2.70;;;15.60;96.30;;;;;;4989742;28;20238;-78
2022/08/28 07:31:58;;;;;;;12.87;3.70;;;15.70;96.30;;;;;;4996278;28;20852;-77
2022/08/28 07:34:24;;;;;;;7.50;2.67;;;15.80;96.30;;;;;;4990546;28;20182;-77
2022/08/28 07:36:52;;;;;;;11.73;3.30;;;16.00;96.30;;;;;;4981331;28;20205;-78
2022/08/28 07:39:18;;;;;;;10.17;2.90;;;16.00;96.30;;;;;;4979930;28;20272;-77
2022/08/28 07:41:45;;;;;;;11.40;3.70;;;16.00;96.30;;;;;;4984546;28;21033;-77
2022/08/28 07:47:02;;;;;;;10.73;3.20;;;16.20;96.30;;;;;;4993672;28;20416;-77
2022/08/28 07:49:30;;;;;;;13.83;2.80;;;16.20;96.30;;;;;;4992408;28;20975;-77
2022/08/28 07:51:56;;;;;;;9.23;3.07;;;16.20;96.30;;;;;;4983386;28;20486;-77
2022/08/28 07:54:22;;;;;;;9.67;2.53;;;16.30;96.30;;;;;;4973732;28;20422;-77
2022/08/28 07:56:47;;;;;;;9.70;3.00;;;16.30;96.30;;;;;;4973749;28;20213;-77
2022/08/28 07:59:14;;;;;;;11.67;3.37;;;16.30;96.30;;;;;;4969625;28;20413;-77
2022/08/28 08:01:41;;;;;;;18.40;3.17;;;16.40;96.30;;;;;;4986691;28;20220;-77
2022/08/28 08:04:09;;;;;;;10.70;3.07;;;16.60;96.30;;;;;;4992926;28;20401;-77
2022/08/28 08:06:36;;;;;;;10.07;3.57;;;16.90;96.30;;;;;;4993070;28;20444;-77
2022/08/28 08:09:04;;;;;;;14.00;3.30;;;17.10;96.30;;;;;;4976611;28;20425;-77
2022/08/28 08:11:29;;;;;;;16.57;3.37;;;17.30;96.30;;;;;;4983957;28;20524;-78
2022/08/28 08:13:56;;;;;;;13.73;3.20;;;17.30;96.30;;;;;;4981793;28;20569;-77
2022/08/28 08:16:23;;;;;;;9.67;3.10;;;17.30;96.30;;;;;;4982601;28;20692;-77
2022/08/28 08:18:52;;;;;;;11.53;3.07;;;17.30;96.30;;;;;;4992176;28;20810;-77
2022/08/28 08:21:19;;;;;;;17.53;3.60;;;17.10;96.30;;;;;;4987313;28;20445;-76
2022/08/28 08:23:45;;;;;;;13.67;4.43;;;17.00;96.30;;;;;;4975930;28;20445;-76
2022/08/28 08:26:16;;;;;;;10.57;3.03;;;17.00;96.30;;;;;;4973339;28;20768;-77
2022/08/28 08:28:43;;;;;;;11.90;3.53;;;17.20;96.30;;;;;;4971739;28;20420;-76
2022/08/28 08:31:20;;;;;;;14.17;3.70;;;17.20;96.30;;;;;;4972455;28;20440;-76
2022/08/28 08:33:49;;;;;;;17.57;3.90;;;17.30;96.30;;;;;;4972398;28;20402;-76
2022/08/28 08:36:17;;;;;;;12.23;3.40;;;17.50;96.30;;;;;;4971725;28;20958;-77
2022/08/28 08:38:42;;;;;;;9.93;3.60;;;17.50;96.30;;;;;;4971269;28;20410;-77
2022/08/28 08:41:24;;;;;;;8.40;3.40;;;17.60;96.30;;;;;;4981589;28;20804;-77
2022/08/28 08:44:28;;;;;;;12.80;3.50;;;17.80;96.30;;;;;;4992648;28;20170;-76
2022/08/28 08:47:21;;;;;;;18.33;3.80;;;17.80;96.30;;;;;;4922491;28;20440;-76
2022/08/28 08:50:03;;;;;;;12.70;3.67;;;18.10;96.30;;;;;;4992207;28;20972;-76
2022/08/28 08:53:05;;;;;;;13.17;4.10;;;18.00;96.30;;;;;;4992514;28;20432;-76
2022/08/28 08:55:34;;;;;;;15.80;3.70;;;18.10;96.30;;;;;;4992335;28;20456;-76
2022/08/28 08:58:10;;;;;;;9.87;3.50;;;18.30;96.30;;;;;;4992193;28;20421;-76
2022/08/28 09:00:51;;;;;;;10.83;4.10;;;18.50;96.30;;;;;;4992623;28;20994;-76
2022/08/28 09:03:23;;;;;;;12.20;3.70;;;18.40;96.30;;;;;;4994700;28;20424;-77
2022/08/28 09:06:01;;;;;;;12.53;4.20;;;18.50;96.30;;;;;;4996995;28;20408;-76
2022/08/28 09:08:39;;;;;;;8.43;3.77;;;18.30;96.30;;;;;;4996216;28;20475;-76
2022/08/28 09:11:22;;;;;;;11.97;4.30;;;18.40;96.30;;;;;;4959455;28;20456;-78
2022/08/28 09:13:56;;;;;;;10.47;4.60;;;18.10;96.30;;;;;;4976872;28;20413;-76
2022/08/28 09:16:36;;;;;;;11.70;5.37;;;18.20;96.30;;;;;;4976727;28;20817;-76
2022/08/28 09:19:03;;;;;;;10.07;4.20;;;18.20;96.30;;;;;;4959044;28;20416;-76
2022/08/28 09:21:33;;;;;;;11.13;4.30;;;18.30;96.30;;;;;;4976657;28;20433;-76
2022/08/28 09:24:02;;;;;;;12.80;4.83;;;18.40;96.30;;;;;;4976653;28;20940;-78
2022/08/28 09:26:28;;;;;;;16.00;4.87;;;18.30;96.30;;;;;;4976498;28;20913;-76
2022/08/28 09:29:12;;;;;;;15.00;4.33;;;18.30;96.30;;;;;;4976340;28;20413;-77
2022/08/28 09:31:43;;;;;;;16.10;4.60;;;18.10;96.30;;;;;;4976421;28;20433;-77
2022/08/28 09:34:22;;;;;;;14.70;4.90;;;18.00;96.30;;;;;;4959266;28;20421;-76
2022/08/28 09:36:48;;;;;;;21.90;5.20;;;17.80;96.30;;;;;;4976448;28;20461;-78
2022/08/28 09:39:16;;;;;;;12.73;5.07;;;17.50;96.30;;;;;;4958741;28;20442;-78
2022/08/28 09:44:57;;;;;;;10.63;5.07;;;17.60;96.30;;;;;;4995831;28;20400;-76
2022/08/28 09:47:56;;;;;;;11.23;4.90;;;17.70;96.30;;;;;;4995701;28;20415;-76
2022/08/28 09:50:41;;;;;;;12.47;4.50;;;17.60;96.30;;;;;;4942957;28;20495;-77
2022/08/28 09:53:10;;;;;;;15.10;4.87;;;17.60;96.30;;;;;;4995607;28;20413;-77
2022/08/28 09:56:01;;;;;;;10.27;4.50;;;17.70;96.30;;;;;;4995411;28;20460;-76
2022/08/28 09:58:32;;;;;;;13.07;5.50;;;17.70;96.30;;;;;;4995295;28;20409;-77
2022/08/28 10:01:14;;;;;;;15.40;5.60;;;17.60;96.30;;;;;;4995229;28;20440;-76
2022/08/28 10:03:50;;;;;;;17.60;5.07;;;17.70;96.30;;;;;;4977962;28;20413;-76
2022/08/28 10:06:31;;;;;;;16.03;5.00;;;17.60;96.30;;;;;;4977929;28;20538;-76
2022/08/28 10:09:05;;;;;;;11.80;4.87;;;17.70;96.30;;;;;;4995001;28;20462;-77
2022/08/28 10:11:51;;;;;;;10.90;5.30;;;18.00;96.30;;;;;;4995269;28;20440;-77
2022/08/28 10:14:56;;;;;;;15.27;4.90;;;18.20;96.30;;;;;;4977459;28;20432;-77
2022/08/28 10:17:47;;;;;;;12.47;4.43;;;18.30;96.30;;;;;;4995392;28;20423;-77
2022/08/28 10:20:34;;;;;;;9.70;4.37;;;18.40;96.30;;;;;;4977344;28;20835;-77
2022/08/28 10:23:16;;;;;;;13.87;5.27;;;18.40;96.30;;;;;;4995279;28;20487;-76
2022/08/28 10:26:13;;;;;;;18.70;5.00;;;18.60;96.30;;;;;;4995004;28;20480;-78
2022/08/28 10:28:59;;;;;;;10.83;4.60;;;18.70;96.30;;;;;;4984214;28;20966;-77
2022/08/28 10:31:31;;;;;;;10.83;4.70;;;18.60;96.30;;;;;;4994909;28;20435;-77
2022/08/28 10:34:24;;;;;;;14.37;5.40;;;18.30;96.30;;;;;;4994849;28;20928;-76
2022/08/28 10:37:03;;;;;;;17.67;5.23;;;18.20;96.30;;;;;;4994712;28;21006;-78
2022/08/28 10:39:47;;;;;;;20.47;5.70;;;18.10;96.30;;;;;;4994590;28;20436;-77
2022/08/28 10:42:18;;;;;;;19.43;5.70;;;18.10;96.30;;;;;;4994535;28;20432;-77
2022/08/28 10:45:03;;;;;;;12.83;4.97;;;18.10;96.30;;;;;;4994768;28;20413;-76
2022/08/28 10:47:33;;;;;;;15.20;4.93;;;18.30;96.30;;;;;;4994632;28;20405;-77
2022/08/28 10:50:04;;;;;;;15.33;4.73;;;18.40;96.30;;;;;;4994317;28;20749;-76
2022/08/28 10:52:39;;;;;;;11.30;4.63;;;18.50;96.30;;;;;;4994551;28;20421;-76
2022/08/28 10:55:15;;;;;;;11.70;5.00;;;18.50;96.30;;;;;;4994325;28;20381;-77
2022/08/28 10:57:55;;;;;;;11.93;5.63;;;18.50;96.30;;;;;;4994269;28;20570;-76
2022/08/28 11:00:22;;;;;;;12.37;5.43;;;18.40;96.30;;;;;;4994149;28;20405;-78
2022/08/28 11:03:07;;;;;;;14.83;5.70;;;18.20;96.30;;;;;;4994225;28;20823;-76
2022/08/28 11:05:36;;;;;;;15.27;6.50;;;18.00;96.30;;;;;;4994460;28;20423;-76
2022/08/28 11:08:06;;;;;;;17.20;6.47;;;18.00;96.30;;;;;;4993946;28;20417;-76
2022/08/28 11:10:31;;;;;;;14.17;5.60;;;18.10;96.30;;;;;;4994068;28;20436;-76
2022/08/28 11:12:58;;;;;;;12.23;6.10;;;18.10;96.30;;;;;;4994150;28;20464;-79
2022/08/28 11:15:26;;;;;;;15.13;6.37;;;17.80;96.30;;;;;;4994025;28;20244;-76
2022/08/28 11:18:17;;;;;;;16.43;7.33;;;17.80;96.30;;;;;;4993787;28;20425;-76
2022/08/28 11:21:08;;;;;;;17.13;8.00;;;17.60;96.30;;;;;;4993988;28;20460;-77
2022/08/28 11:23:57;;;;;;;20.60;8.50;;;17.40;96.30;;;;;;4993869;28;20911;-76
2022/08/28 11:26:32;;;;;;;16.17;9.90;;;17.20;96.30;;;;;;4993678;28;20400;-76
2022/08/28 11:28:58;;;;;;;15.97;10.50;;;17.10;96.30;;;;;;4993657;28;20405;-76
2022/08/28 11:31:23;;;;;;;15.43;10.67;;;17.10;96.30;;;;;;4993720;28;20491;-78
2022/08/28 11:33:54;;;;;;;19.93;11.27;;;17.30;96.30;;;;;;4993713;28;20188;-76
2022/08/28 11:36:20;;;;;;;12.17;10.77;;;17.30;96.30;;;;;;4993644;28;20676;-76
2022/08/28 11:38:52;;;;;;;18.10;11.50;;;17.40;96.30;;;;;;4975981;28;20421;-76
2022/08/28 11:41:21;;;;;;;12.33;10.43;;;17.60;96.30;;;;;;4993375;28;21039;-76
2022/08/28 11:44:09;;;;;;;18.50;9.70;;;17.70;96.30;;;;;;4993578;28;20992;-76
2022/08/28 11:46:41;;;;;;;17.50;10.37;;;17.90;96.30;;;;;;4993552;28;20428;-76
2022/08/28 11:49:25;;;;;;;12.83;9.50;;;17.90;96.30;;;;;;4993124;28;20493;-78
2022/08/28 11:52:16;;;;;;;17.60;9.63;;;17.90;96.30;;;;;;4993295;28;20428;-77
2022/08/28 11:55:08;;;;;;;16.20;9.53;;;17.90;96.30;;;;;;4993395;28;20420;-76
2022/08/28 11:58:16;;;;;;;15.90;8.97;;;18.00;96.30;;;;;;4993221;28;20793;-76
2022/08/28 12:00:44;;;;;;;18.10;8.50;;;18.20;96.30;;;;;;4993207;28;20456;-76
2022/08/28 12:03:22;;;;;;;16.60;9.23;;;18.40;96.30;;;;;;4993226;28;20421;-76
2022/08/28 12:05:52;;;;;;;11.43;7.47;;;18.50;96.30;;;;;;4993105;28;20496;-76
2022/08/28 12:08:50;;;;;;;19.63;8.53;;;18.50;96.30;;;;;;4992952;28;20908;-77
2022/08/28 12:11:37;;;;;;;9.77;6.40;;;18.60;96.30;;;;;;4980953;28;20432;-77
2022/08/28 12:14:11;;;;;;;13.67;6.60;;;18.50;96.30;;;;;;4987154;28;20810;-77
2022/08/28 12:17:07;;;;;;;13.90;6.77;;;18.30;96.30;;;;;;4983149;28;20461;-76
2022/08/28 12:19:49;;;;;;;20.23;7.30;;;18.30;96.30;;;;;;4972252;28;20411;-77
2022/08/28 12:22:18;;;;;;;16.73;6.57;;;18.20;96.30;;;;;;4961197;28;20536;-77
2022/08/28 12:25:05;;;;;;;13.73;6.37;;;18.20;96.30;;;;;;4973388;28;20410;-76
2022/08/28 12:27:35;;;;;;;11.50;5.97;;;18.20;96.30;;;;;;4992628;28;20917;-76
2022/08/28 12:30:01;;;;;;;12.03;5.80;;;18.30;96.30;;;;;;4992612;28;20423;-76
2022/08/28 12:32:43;;;;;;;12.47;6.00;;;18.50;96.30;;;;;;4992742;28;20432;-76
2022/08/28 12:35:15;;;;;;;11.13;6.07;;;18.80;96.30;;;;;;4992512;28;20496;-76
2022/08/28 12:37:52;;;;;;;8.60;5.90;;;19.00;96.30;;;;;;4989132;28;20427;-76
2022/08/28 12:40:25;;;;;;;12.10;5.60;;;19.00;96.30;;;;;;4992423;28;20519;-76
2022/08/28 12:42:57;;;;;;;12.70;5.50;;;19.10;96.30;;;;;;4989862;28;20463;-77
2022/08/28 12:45:39;;;;;;;10.20;5.60;;;19.30;96.30;;;;;;4990343;28;20416;-77
2022/08/28 12:48:13;;;;;;;13.47;5.33;;;19.90;96.30;;;;;;4983667;28;20782;-77
2022/08/28 12:50:39;;;;;;;12.73;4.80;;;20.50;96.30;;;;;;4988448;28;20812;-77
2022/08/28 12:53:11;;;;;;;20.37;6.20;;;21.00;96.30;;;;;;4986606;28;20417;-77
2022/08/28 12:55:38;;;;;;;16.03;5.57;;;21.10;96.30;;;;;;4972944;28;20548;-77
2022/08/28 12:58:11;;;;;;;11.47;5.20;;;20.40;96.30;;;;;;4972733;28;20495;-77
2022/08/28 13:00:50;;;;;;;12.70;4.50;;;20.30;96.30;;;;;;4992391;28;20455;-78
2022/08/28 13:03:16;;;;;;;11.63;5.27;;;20.20;96.30;;;;;;4992282;28;20907;-77
2022/08/28 13:05:41;;;;;;;12.20;5.87;;;20.10;96.30;;;;;;4986765;28;20507;-77
2022/08/28 13:08:10;;;;;;;15.13;5.90;;;20.40;96.30;;;;;;4986466;28;20205;-74
2022/08/28 13:10:47;;;;;;;13.83;6.00;;;20.70;96.30;;;;;;4981576;28;20202;-77
2022/08/28 13:13:43;;;;;;;9.17;4.77;;;21.00;96.30;;;;;;5002330;28;20545;-74
2022/08/28 13:16:12;;;;;;;11.60;4.73;;;21.20;96.30;;;;;;4996552;28;20460;-74
2022/08/28 13:18:39;;;;;;;13.73;4.83;;;21.40;96.30;;;;;;4991506;28;20412;-74
2022/08/28 13:21:16;;;;;;;8.53;4.60;;;21.40;96.30;;;;;;4989644;28;20468;-74
2022/08/28 13:23:43;;;;;;;13.23;4.80;;;21.00;96.30;;;;;;4992184;28;20919;-75
2022/08/28 13:26:09;;;;;;;9.87;4.40;;;21.00;96.30;;;;;;4992021;28;20428;-75
2022/08/28 13:28:41;;;;;;;11.90;4.90;;;21.00;96.30;;;;;;4992144;28;20408;-75
2022/08/28 13:31:32;;;;;;;10.77;4.67;;;21.00;96.30;;;;;;4992210;28;20464;-75
2022/08/28 13:34:03;;;;;;;12.23;5.30;;;21.20;96.30;;;;;;4992153;28;20412;-75
2022/08/28 13:36:39;;;;;;;12.80;4.77;;;21.20;96.30;;;;;;4992179;28;20944;-76
2022/08/28 13:39:04;;;;;;;13.33;5.17;;;21.40;96.30;;;;;;4989719;28;20421;-76
2022/08/28 13:41:30;;;;;;;9.30;4.20;;;21.60;96.30;;;;;;4991840;28;20811;-74
2022/08/28 13:43:56;;;;;;;10.37;4.10;;;21.80;96.30;;;;;;4989908;28;20197;-76
2022/08/28 13:46:22;;;;;;;10.97;5.00;;;21.60;96.30;;;;;;4979139;28;20265;-74
2022/08/28 13:48:47;;;;;;;12.00;4.10;;;21.40;96.30;;;;;;4956044;28;20508;-74
2022/08/28 13:51:13;;;;;;;11.37;4.70;;;21.40;96.30;;;;;;4976273;28;20581;-76
2022/08/28 13:53:39;;;;;;;10.00;4.33;;;21.50;96.30;;;;;;4976239;28;20274;-74
2022/08/28 13:56:05;;;;;;;9.50;5.20;;;21.60;96.30;;;;;;4976106;28;20659;-76
2022/08/28 13:58:30;;;;;;;9.30;5.20;;;21.60;96.30;;;;;;4975532;28;20186;-74
2022/08/28 14:00:56;;;;;;;15.23;4.70;;;21.60;96.30;;;;;;4975948;28;20445;-74
2022/08/28 14:03:37;;;;;;;10.70;4.70;;;21.30;96.30;;;;;;4975970;28;20189;-74
2022/08/28 14:06:10;;;;;;;11.73;4.60;;;21.10;96.30;;;;;;4976378;28;20161;-75
2022/08/28 14:08:36;;;;;;;15.13;5.23;;;21.00;96.30;;;;;;4974934;28;20402;-76
2022/08/28 14:11:02;;;;;;;11.67;4.97;;;21.60;96.30;;;;;;4976116;28;20773;-76
2022/08/28 14:13:28;;;;;;;10.00;4.80;;;22.10;96.30;;;;;;4975976;28;20841;-75
2022/08/28 14:15:56;;;;;;;8.77;4.23;;;22.10;96.30;;;;;;4976108;28;20209;-77
2022/08/28 14:18:23;;;;;;;19.10;5.07;;;21.70;96.30;;;;;;4975784;28;20627;-78
2022/08/28 14:20:48;;;;;;;7.83;4.57;;;21.30;96.30;;;;;;4976019;28;20949;-75
2022/08/28 14:23:14;;;;;;;7.53;4.40;;;21.10;96.30;;;;;;4975822;28;20460;-75
2022/08/28 14:25:44;;;;;;;9.00;4.50;;;21.00;96.30;;;;;;4975770;28;20178;-74
2022/08/28 14:28:13;;;;;;;9.00;4.70;;;21.20;96.30;;;;;;4957880;28;20289;-75
2022/08/28 14:30:43;;;;;;;8.00;4.40;;;21.80;96.30;;;;;;4975896;28;20433;-77
2022/08/28 14:33:09;;;;;;;13.07;4.90;;;22.00;96.30;;;;;;4975774;28;20409;-77
2022/08/28 14:35:38;;;;;;;12.47;4.67;;;21.90;96.30;;;;;;4975559;28;20548;-76
2022/08/28 14:38:03;;;;;;;9.40;4.83;;;21.90;96.30;;;;;;4975132;28;20545;-75
2022/08/28 14:40:29;;;;;;;10.53;4.90;;;21.80;96.30;;;;;;4980039;28;20512;-75
2022/08/28 14:42:54;;;;;;;9.60;5.07;;;21.90;96.30;;;;;;4994808;28;20170;-79
2022/08/28 14:45:20;;;;;;;9.40;4.50;;;21.90;96.30;;;;;;4994639;28;20701;-76
2022/08/28 14:47:45;;;;;;;11.80;4.77;;;21.60;96.30;;;;;;4994498;28;20181;-76
2022/08/28 14:50:11;;;;;;;15.20;5.43;;;21.30;96.30;;;;;;4988140;28;20170;-79
2022/08/28 14:52:37;;;;;;;14.30;4.60;;;20.90;96.30;;;;;;4987893;28;20194;-78
2022/08/28 14:55:04;;;;;;;9.70;4.43;;;20.60;96.30;;;;;;4983256;28;20174;-78
2022/08/28 14:57:30;;;;;;;7.67;4.10;;;20.40;96.30;;;;;;4985458;28;20417;-78
2022/08/28 14:59:55;;;;;;;10.37;3.80;;;20.40;96.30;;;;;;4995629;28;20416;-75
2022/08/28 15:02:21;;;;;;;14.27;4.67;;;20.30;96.30;;;;;;4987847;28;20222;-78
2022/08/28 15:04:46;;;;;;;9.53;4.63;;;20.30;96.30;;;;;;4986299;28;20189;-80
2022/08/28 15:07:14;;;;;;;12.67;4.40;;;20.30;96.30;;;;;;4974218;28;20209;-78
2022/08/28 15:09:41;;;;;;;9.77;4.50;;;20.30;96.30;;;;;;4989219;28;20173;-78
2022/08/28 15:12:07;;;;;;;7.57;3.57;;;20.20;96.30;;;;;;4984468;28;20483;-78
2022/08/28 15:14:33;;;;;;;12.00;4.33;;;20.20;96.30;;;;;;4965381;28;20424;-78
2022/08/28 15:16:58;;;;;;;9.37;3.70;;;20.10;96.30;;;;;;4985733;28;20590;-79
2022/08/28 15:19:24;;;;;;;12.33;3.80;;;20.30;96.30;;;;;;4986355;28;20425;-79
2022/08/28 15:21:52;;;;;;;16.13;3.90;;;20.70;96.30;;;;;;4982213;28;20296;-79
2022/08/28 15:24:20;;;;;;;7.53;3.80;;;21.00;96.30;;;;;;4982478;28;20187;-79
2022/08/28 15:26:46;;;;;;;8.83;3.80;;;21.60;96.30;;;;;;4962698;28;20430;-79
2022/08/28 15:29:11;;;;;;;5.83;3.10;;;21.90;96.30;;;;;;4974827;28;20520;-78
2022/08/28 15:31:41;;;;;;;7.30;3.67;;;22.10;96.30;;;;;;4975372;28;20210;-78
2022/08/28 15:34:16;;;;;;;11.43;3.90;;;22.10;96.30;;;;;;4975862;28;20548;-79
2022/08/28 15:36:43;;;;;;;11.07;3.23;;;21.90;96.30;;;;;;4974673;28;20453;-77
2022/08/28 15:41:55;;;;;;;9.10;3.90;;;21.50;96.30;;;;;;4983348;28;20956;-79
2022/08/28 15:44:20;;;;;;;15.47;4.10;;;21.00;96.30;;;;;;4975129;28;20430;-79
2022/08/28 15:46:52;;;;;;;6.60;3.33;;;21.00;96.30;;;;;;4990018;28;20448;-78
2022/08/28 15:49:19;;;;;;;7.93;3.20;;;21.10;96.30;;;;;;4993162;28;20165;-78
2022/08/28 15:51:45;;;;;;;13.93;3.23;;;21.10;96.30;;;;;;4994383;28;20480;-78
2022/08/28 15:54:10;;;;;;;8.50;3.40;;;21.10;96.30;;;;;;4994572;28;20448;-78
2022/08/28 15:56:35;;;;;;;7.63;4.90;;;20.90;96.30;;;;;;4976084;28;20223;-78
2022/08/28 15:59:01;;;;;;;6.53;3.00;;;20.90;96.30;;;;;;4993398;28;20174;-77
2022/08/28 16:01:26;;;;;;;5.33;3.50;;;20.80;96.30;;;;;;4994470;28;20296;-78
2022/08/28 16:03:52;;;;;;;6.10;3.00;;;20.80;96.30;;;;;;4977748;28;20178;-78
2022/08/28 16:06:20;;;;;;;4.97;2.70;;;20.80;96.30;;;;;;4991148;28;20269;-78
2022/08/28 16:08:46;;;;;;;9.10;3.40;;;20.80;96.30;;;;;;5008877;28;20208;-78
2022/08/28 16:11:17;;;;;;;9.03;2.33;;;20.80;96.30;;;;;;4998703;28;20468;-79
2022/08/28 16:13:42;;;;;;;6.10;3.93;;;20.90;96.30;;;;;;4967988;28;20488;-78
2022/08/28 16:16:08;;;;;;;5.87;2.90;;;20.90;96.30;;;;;;5000528;28;20575;-78
2022/08/28 16:18:34;;;;;;;9.23;2.73;;;20.90;96.30;;;;;;5005379;28;20821;-76
2022/08/28 16:20:59;;;;;;;6.23;3.60;;;20.80;96.30;;;;;;4994382;28;20527;-78
2022/08/28 16:23:25;;;;;;;9.70;4.20;;;20.70;96.30;;;;;;4995106;28;20192;-78
2022/08/28 16:25:50;;;;;;;8.73;3.27;;;20.70;96.30;;;;;;4994122;28;20178;-78
2022/08/28 16:28:16;;;;;;;11.77;3.10;;;20.60;96.30;;;;;;4993358;28;20213;-79
2022/08/28 16:30:41;;;;;;;9.13;3.40;;;20.60;96.30;;;;;;4993894;28;20197;-78
2022/08/28 16:33:08;;;;;;;5.70;2.50;;;20.70;96.30;;;;;;4975444;28;20182;-76
2022/08/28 16:35:41;;;;;;;11.77;3.37;;;20.70;96.30;;;;;;4991246;28;20201;-76
2022/08/28 16:38:08;;;;;;;11.50;3.40;;;20.50;96.30;;;;;;4980473;28;20445;-79
2022/08/28 16:40:36;;;;;;;8.40;2.57;;;20.60;96.30;;;;;;4978692;28;20424;-78
2022/08/28 16:43:03;;;;;;;9.10;3.50;;;20.60;96.30;;;;;;4983103;28;20427;-78
2022/08/28 16:45:29;;;;;;;4.23;2.30;;;20.60;96.30;;;;;;4989390;28;20475;-78
2022/08/28 16:47:54;;;;;;;8.30;3.47;;;20.50;96.30;;;;;;4993346;28;20417;-78
2022/08/28 16:50:20;;;;;;;10.27;3.43;;;20.30;96.30;;;;;;4996981;28;20181;-80
2022/08/28 16:52:47;;;;;;;4.93;2.80;;;20.20;96.30;;;;;;4999113;28;20173;-80
2022/08/28 16:55:13;;;;;;;8.43;3.00;;;20.20;96.30;;;;;;4982527;28;20208;-79
2022/08/28 16:57:38;;;;;;;8.13;2.60;;;20.10;96.30;;;;;;4982391;28;20412;-77
2022/08/28 17:00:08;;;;;;;11.83;3.70;;;20.10;96.30;;;;;;4977694;28;20313;-79
2022/08/28 17:02:34;;;;;;;7.20;2.80;;;19.90;96.30;;;;;;4986076;28;20268;-78
2022/08/28 17:05:00;;;;;;;9.20;3.70;;;19.80;96.30;;;;;;4986998;28;20940;-80